sensor_id;sensor_type;location;lat;lon;timestamp;P1;durP1;ratioP1;P2;durP2;ratioP2
26622;SDS011;14254;50.968;5.366;2023-05-07T00:02:23;10.20;;;7.78;;
26622;SDS011;14254;50.968;5.366;2023-05-07T00:04:48;12.10;;;8.13;;
26622;SDS011;14254;50.968;5.366;2023-05-07T00:07:15;10.35;;;8.23;;
26622;SDS011;14254;50.968;5.366;2023-05-07T00:09:41;11.75;;;8.60;;
26622;SDS011;14254;50.968;5.366;2023-05-07T00:12:07;13.35;;;8.00;;
26622;SDS011;14254;50.968;5.366;2023-05-07T00:14:33;10.95;;;9.15;;
26622;SDS011;14254;50.968;5.366;2023-05-07T00:16:58;13.32;;;8.85;;
26622;SDS011;14254;50.968;5.366;2023-05-07T00:19:24;12.63;;;9.02;;
26622;SDS011;14254;50.968;5.366;2023-05-07T00:21:50;13.13;;;8.40;;
26622;SDS011;14254;50.968;5.366;2023-05-07T00:24:18;9.18;;;7.88;;
26622;SDS011;14254;50.968;5.366;2023-05-07T00:26:44;9.48;;;7.72;;
26622;SDS011;14254;50.968;5.366;2023-05-07T00:29:09;8.95;;;7.40;;
26622;SDS011;14254;50.968;5.366;2023-05-07T00:31:35;9.55;;;7.38;;
26622;SDS011;14254;50.968;5.366;2023-05-07T00:34:01;13.63;;;7.20;;
26622;SDS011;14254;50.968;5.366;2023-05-07T00:36:26;11.77;;;7.30;;
26622;SDS011;14254;50.968;5.366;2023-05-07T00:38:53;9.25;;;7.30;;
26622;SDS011;14254;50.968;5.366;2023-05-07T00:41:19;12.05;;;7.93;;
26622;SDS011;14254;50.968;5.366;2023-05-07T00:43:45;13.27;;;9.30;;
26622;SDS011;14254;50.968;5.366;2023-05-07T00:46:11;14.90;;;9.23;;
26622;SDS011;14254;50.968;5.366;2023-05-07T00:48:37;12.02;;;9.25;;
26622;SDS011;14254;50.968;5.366;2023-05-07T00:51:03;12.65;;;9.70;;
26622;SDS011;14254;50.968;5.366;2023-05-07T00:53:29;12.25;;;9.23;;
26622;SDS011;14254;50.968;5.366;2023-05-07T00:55:55;12.05;;;9.18;;
26622;SDS011;14254;50.968;5.366;2023-05-07T00:58:21;15.70;;;10.30;;
26622;SDS011;14254;50.968;5.366;2023-05-07T01:00:47;17.67;;;9.38;;
26622;SDS011;14254;50.968;5.366;2023-05-07T01:03:13;13.55;;;10.18;;
26622;SDS011;14254;50.968;5.366;2023-05-07T01:05:38;13.43;;;10.15;;
26622;SDS011;14254;50.968;5.366;2023-05-07T01:08:05;17.65;;;10.30;;
26622;SDS011;14254;50.968;5.366;2023-05-07T01:10:31;11.10;;;9.73;;
26622;SDS011;14254;50.968;5.366;2023-05-07T01:12:58;11.00;;;8.95;;
26622;SDS011;14254;50.968;5.366;2023-05-07T01:15:24;15.38;;;10.50;;
26622;SDS011;14254;50.968;5.366;2023-05-07T01:17:50;11.63;;;9.35;;
26622;SDS011;14254;50.968;5.366;2023-05-07T01:20:17;14.40;;;9.70;;
26622;SDS011;14254;50.968;5.366;2023-05-07T01:22:43;12.48;;;9.32;;
26622;SDS011;14254;50.968;5.366;2023-05-07T01:25:10;11.85;;;9.48;;
26622;SDS011;14254;50.968;5.366;2023-05-07T01:27:35;14.20;;;9.50;;
26622;SDS011;14254;50.968;5.366;2023-05-07T01:30:04;12.18;;;9.50;;
26622;SDS011;14254;50.968;5.366;2023-05-07T01:32:35;14.05;;;8.85;;
26622;SDS011;14254;50.968;5.366;2023-05-07T01:35:07;13.55;;;8.80;;
26622;SDS011;14254;50.968;5.366;2023-05-07T01:37:36;10.38;;;8.85;;
26622;SDS011;14254;50.968;5.366;2023-05-07T01:40:04;19.00;;;8.73;;
26622;SDS011;14254;50.968;5.366;2023-05-07T01:42:30;10.57;;;8.10;;
26622;SDS011;14254;50.968;5.366;2023-05-07T01:44:56;11.88;;;8.23;;
26622;SDS011;14254;50.968;5.366;2023-05-07T01:47:22;9.30;;;8.40;;
26622;SDS011;14254;50.968;5.366;2023-05-07T01:49:49;13.70;;;8.63;;
26622;SDS011;14254;50.968;5.366;2023-05-07T01:52:15;12.70;;;9.32;;
26622;SDS011;14254;50.968;5.366;2023-05-07T01:54:40;13.63;;;10.38;;
26622;SDS011;14254;50.968;5.366;2023-05-07T01:57:06;11.48;;;9.07;;
26622;SDS011;14254;50.968;5.366;2023-05-07T01:59:32;13.60;;;9.55;;
26622;SDS011;14254;50.968;5.366;2023-05-07T02:01:58;13.90;;;9.40;;
26622;SDS011;14254;50.968;5.366;2023-05-07T02:04:23;16.15;;;9.35;;
26622;SDS011;14254;50.968;5.366;2023-05-07T02:06:49;13.07;;;10.00;;
26622;SDS011;14254;50.968;5.366;2023-05-07T02:09:15;15.73;;;10.32;;
26622;SDS011;14254;50.968;5.366;2023-05-07T02:11:41;13.55;;;9.38;;
26622;SDS011;14254;50.968;5.366;2023-05-07T02:14:06;15.05;;;10.05;;
26622;SDS011;14254;50.968;5.366;2023-05-07T02:16:32;15.27;;;9.73;;
26622;SDS011;14254;50.968;5.366;2023-05-07T02:18:58;15.20;;;9.30;;
26622;SDS011;14254;50.968;5.366;2023-05-07T02:21:24;14.90;;;9.23;;
26622;SDS011;14254;50.968;5.366;2023-05-07T02:23:50;11.05;;;9.57;;
26622;SDS011;14254;50.968;5.366;2023-05-07T02:26:16;11.90;;;8.65;;
26622;SDS011;14254;50.968;5.366;2023-05-07T02:28:41;14.25;;;9.73;;
26622;SDS011;14254;50.968;5.366;2023-05-07T02:31:07;9.90;;;8.60;;
26622;SDS011;14254;50.968;5.366;2023-05-07T02:33:33;9.82;;;8.32;;
26622;SDS011;14254;50.968;5.366;2023-05-07T02:36:09;9.77;;;8.45;;
26622;SDS011;14254;50.968;5.366;2023-05-07T02:38:35;16.70;;;9.80;;
26622;SDS011;14254;50.968;5.366;2023-05-07T02:41:01;11.00;;;8.95;;
26622;SDS011;14254;50.968;5.366;2023-05-07T02:43:27;13.02;;;9.45;;
26622;SDS011;14254;50.968;5.366;2023-05-07T02:46:05;13.63;;;9.70;;
26622;SDS011;14254;50.968;5.366;2023-05-07T02:48:33;11.75;;;9.32;;
26622;SDS011;14254;50.968;5.366;2023-05-07T02:50:59;12.93;;;9.02;;
26622;SDS011;14254;50.968;5.366;2023-05-07T02:53:25;12.68;;;9.55;;
26622;SDS011;14254;50.968;5.366;2023-05-07T02:55:58;13.65;;;9.80;;
26622;SDS011;14254;50.968;5.366;2023-05-07T02:58:25;17.08;;;11.45;;
26622;SDS011;14254;50.968;5.366;2023-05-07T03:00:51;12.30;;;9.35;;
26622;SDS011;14254;50.968;5.366;2023-05-07T03:03:17;12.15;;;9.02;;
26622;SDS011;14254;50.968;5.366;2023-05-07T03:05:43;9.73;;;8.57;;
26622;SDS011;14254;50.968;5.366;2023-05-07T03:08:09;12.70;;;9.23;;
26622;SDS011;14254;50.968;5.366;2023-05-07T03:10:35;14.98;;;9.43;;
26622;SDS011;14254;50.968;5.366;2023-05-07T03:13:02;10.63;;;9.18;;
26622;SDS011;14254;50.968;5.366;2023-05-07T03:15:28;12.15;;;9.82;;
26622;SDS011;14254;50.968;5.366;2023-05-07T03:17:53;15.10;;;10.73;;
26622;SDS011;14254;50.968;5.366;2023-05-07T03:20:19;11.63;;;9.25;;
26622;SDS011;14254;50.968;5.366;2023-05-07T03:22:45;16.33;;;11.23;;
26622;SDS011;14254;50.968;5.366;2023-05-07T03:25:10;18.85;;;11.10;;
26622;SDS011;14254;50.968;5.366;2023-05-07T03:27:37;16.13;;;10.90;;
26622;SDS011;14254;50.968;5.366;2023-05-07T03:30:03;13.85;;;10.90;;
26622;SDS011;14254;50.968;5.366;2023-05-07T03:32:29;18.25;;;10.95;;
26622;SDS011;14254;50.968;5.366;2023-05-07T03:34:55;17.17;;;11.57;;
26622;SDS011;14254;50.968;5.366;2023-05-07T03:37:21;12.35;;;10.90;;
26622;SDS011;14254;50.968;5.366;2023-05-07T03:39:46;14.30;;;10.35;;
26622;SDS011;14254;50.968;5.366;2023-05-07T03:42:12;13.40;;;10.80;;
26622;SDS011;14254;50.968;5.366;2023-05-07T03:44:38;16.02;;;11.05;;
26622;SDS011;14254;50.968;5.366;2023-05-07T03:47:04;16.95;;;10.65;;
26622;SDS011;14254;50.968;5.366;2023-05-07T03:49:29;15.20;;;11.15;;
26622;SDS011;14254;50.968;5.366;2023-05-07T03:51:55;15.15;;;11.38;;
26622;SDS011;14254;50.968;5.366;2023-05-07T03:54:21;13.15;;;10.40;;
26622;SDS011;14254;50.968;5.366;2023-05-07T03:56:47;12.10;;;10.77;;
26622;SDS011;14254;50.968;5.366;2023-05-07T03:59:13;11.52;;;10.07;;
26622;SDS011;14254;50.968;5.366;2023-05-07T04:01:39;12.38;;;10.40;;
26622;SDS011;14254;50.968;5.366;2023-05-07T04:04:05;14.70;;;10.45;;
26622;SDS011;14254;50.968;5.366;2023-05-07T04:06:31;13.32;;;10.15;;
26622;SDS011;14254;50.968;5.366;2023-05-07T04:08:56;13.73;;;10.02;;
26622;SDS011;14254;50.968;5.366;2023-05-07T04:11:22;14.70;;;10.38;;
26622;SDS011;14254;50.968;5.366;2023-05-07T04:13:48;13.05;;;9.88;;
26622;SDS011;14254;50.968;5.366;2023-05-07T04:16:14;12.68;;;9.80;;
26622;SDS011;14254;50.968;5.366;2023-05-07T04:18:40;12.98;;;9.07;;
26622;SDS011;14254;50.968;5.366;2023-05-07T04:21:13;15.82;;;10.82;;
26622;SDS011;14254;50.968;5.366;2023-05-07T04:23:40;17.52;;;10.30;;
26622;SDS011;14254;50.968;5.366;2023-05-07T04:26:05;16.92;;;10.80;;
26622;SDS011;14254;50.968;5.366;2023-05-07T04:28:32;12.15;;;9.80;;
26622;SDS011;14254;50.968;5.366;2023-05-07T04:30:57;19.48;;;10.93;;
26622;SDS011;14254;50.968;5.366;2023-05-07T04:33:23;16.58;;;10.43;;
26622;SDS011;14254;50.968;5.366;2023-05-07T04:35:49;17.65;;;10.52;;
26622;SDS011;14254;50.968;5.366;2023-05-07T04:38:14;13.85;;;10.27;;
26622;SDS011;14254;50.968;5.366;2023-05-07T04:40:41;13.70;;;10.27;;
26622;SDS011;14254;50.968;5.366;2023-05-07T04:43:07;15.55;;;10.15;;
26622;SDS011;14254;50.968;5.366;2023-05-07T04:45:34;16.80;;;11.38;;
26622;SDS011;14254;50.968;5.366;2023-05-07T04:48:00;16.98;;;11.25;;
26622;SDS011;14254;50.968;5.366;2023-05-07T04:50:26;15.63;;;9.82;;
26622;SDS011;14254;50.968;5.366;2023-05-07T04:52:51;18.05;;;11.23;;
26622;SDS011;14254;50.968;5.366;2023-05-07T04:55:17;22.92;;;11.07;;
26622;SDS011;14254;50.968;5.366;2023-05-07T04:57:43;15.85;;;10.07;;
26622;SDS011;14254;50.968;5.366;2023-05-07T05:00:09;15.50;;;10.40;;
26622;SDS011;14254;50.968;5.366;2023-05-07T05:02:35;12.18;;;9.13;;
26622;SDS011;14254;50.968;5.366;2023-05-07T05:05:01;13.13;;;9.60;;
26622;SDS011;14254;50.968;5.366;2023-05-07T05:07:27;15.35;;;10.00;;
26622;SDS011;14254;50.968;5.366;2023-05-07T05:09:53;16.52;;;9.98;;
26622;SDS011;14254;50.968;5.366;2023-05-07T05:12:20;10.77;;;9.68;;
26622;SDS011;14254;50.968;5.366;2023-05-07T05:14:46;10.50;;;8.75;;
26622;SDS011;14254;50.968;5.366;2023-05-07T05:17:12;11.95;;;9.82;;
26622;SDS011;14254;50.968;5.366;2023-05-07T05:19:37;11.52;;;10.13;;
26622;SDS011;14254;50.968;5.366;2023-05-07T05:22:03;14.70;;;10.05;;
26622;SDS011;14254;50.968;5.366;2023-05-07T05:24:29;14.15;;;9.27;;
26622;SDS011;14254;50.968;5.366;2023-05-07T05:26:55;10.68;;;9.05;;
26622;SDS011;14254;50.968;5.366;2023-05-07T05:29:21;11.00;;;8.25;;
26622;SDS011;14254;50.968;5.366;2023-05-07T05:31:47;14.32;;;8.80;;
26622;SDS011;14254;50.968;5.366;2023-05-07T05:34:13;11.73;;;8.85;;
26622;SDS011;14254;50.968;5.366;2023-05-07T05:36:38;10.18;;;8.82;;
26622;SDS011;14254;50.968;5.366;2023-05-07T05:39:04;13.65;;;9.40;;
26622;SDS011;14254;50.968;5.366;2023-05-07T05:41:30;10.98;;;9.45;;
26622;SDS011;14254;50.968;5.366;2023-05-07T05:43:56;14.32;;;9.13;;
26622;SDS011;14254;50.968;5.366;2023-05-07T05:46:22;12.75;;;9.10;;
26622;SDS011;14254;50.968;5.366;2023-05-07T05:48:48;19.30;;;8.80;;
26622;SDS011;14254;50.968;5.366;2023-05-07T05:51:13;15.80;;;9.45;;
26622;SDS011;14254;50.968;5.366;2023-05-07T05:53:39;16.42;;;9.00;;
26622;SDS011;14254;50.968;5.366;2023-05-07T05:56:05;13.02;;;8.75;;
26622;SDS011;14254;50.968;5.366;2023-05-07T05:58:31;14.48;;;9.18;;
26622;SDS011;14254;50.968;5.366;2023-05-07T06:00:57;9.82;;;8.55;;
26622;SDS011;14254;50.968;5.366;2023-05-07T06:03:23;13.15;;;9.38;;
26622;SDS011;14254;50.968;5.366;2023-05-07T06:05:48;12.80;;;9.02;;
26622;SDS011;14254;50.968;5.366;2023-05-07T06:08:14;12.73;;;7.97;;
26622;SDS011;14254;50.968;5.366;2023-05-07T06:10:40;9.60;;;7.47;;
26622;SDS011;14254;50.968;5.366;2023-05-07T06:13:06;13.82;;;9.50;;
26622;SDS011;14254;50.968;5.366;2023-05-07T06:15:32;10.55;;;8.52;;
26622;SDS011;14254;50.968;5.366;2023-05-07T06:17:57;9.35;;;7.80;;
26622;SDS011;14254;50.968;5.366;2023-05-07T06:20:23;14.13;;;8.68;;
26622;SDS011;14254;50.968;5.366;2023-05-07T06:22:49;8.80;;;7.88;;
26622;SDS011;14254;50.968;5.366;2023-05-07T06:25:14;16.02;;;8.07;;
26622;SDS011;14254;50.968;5.366;2023-05-07T06:27:40;10.52;;;7.85;;
26622;SDS011;14254;50.968;5.366;2023-05-07T06:30:06;12.95;;;7.35;;
26622;SDS011;14254;50.968;5.366;2023-05-07T06:32:32;10.23;;;7.07;;
26622;SDS011;14254;50.968;5.366;2023-05-07T06:34:58;9.70;;;7.43;;
26622;SDS011;14254;50.968;5.366;2023-05-07T06:37:23;10.63;;;7.88;;
26622;SDS011;14254;50.968;5.366;2023-05-07T06:39:49;9.00;;;7.32;;
26622;SDS011;14254;50.968;5.366;2023-05-07T06:42:15;16.60;;;8.07;;
26622;SDS011;14254;50.968;5.366;2023-05-07T06:44:41;8.85;;;7.57;;
26622;SDS011;14254;50.968;5.366;2023-05-07T06:47:06;9.00;;;7.07;;
26622;SDS011;14254;50.968;5.366;2023-05-07T06:49:32;9.60;;;6.70;;
26622;SDS011;14254;50.968;5.366;2023-05-07T06:51:58;8.20;;;7.18;;
26622;SDS011;14254;50.968;5.366;2023-05-07T06:54:24;11.43;;;7.18;;
26622;SDS011;14254;50.968;5.366;2023-05-07T06:56:49;11.35;;;7.88;;
26622;SDS011;14254;50.968;5.366;2023-05-07T06:59:15;11.65;;;7.30;;
26622;SDS011;14254;50.968;5.366;2023-05-07T07:01:41;8.88;;;7.22;;
26622;SDS011;14254;50.968;5.366;2023-05-07T07:04:07;7.50;;;6.18;;
26622;SDS011;14254;50.968;5.366;2023-05-07T07:06:32;10.48;;;6.07;;
26622;SDS011;14254;50.968;5.366;2023-05-07T07:08:58;16.65;;;5.60;;
26622;SDS011;14254;50.968;5.366;2023-05-07T07:11:25;5.97;;;5.22;;
26622;SDS011;14254;50.968;5.366;2023-05-07T07:13:51;7.03;;;5.47;;
26622;SDS011;14254;50.968;5.366;2023-05-07T07:16:18;9.23;;;5.90;;
26622;SDS011;14254;50.968;5.366;2023-05-07T07:18:44;8.10;;;5.55;;
26622;SDS011;14254;50.968;5.366;2023-05-07T07:21:10;8.77;;;5.50;;
26622;SDS011;14254;50.968;5.366;2023-05-07T07:23:35;10.82;;;5.63;;
26622;SDS011;14254;50.968;5.366;2023-05-07T07:26:01;8.23;;;4.70;;
26622;SDS011;14254;50.968;5.366;2023-05-07T07:28:27;8.25;;;5.05;;
26622;SDS011;14254;50.968;5.366;2023-05-07T07:30:53;8.02;;;4.90;;
26622;SDS011;14254;50.968;5.366;2023-05-07T07:33:18;7.50;;;4.75;;
26622;SDS011;14254;50.968;5.366;2023-05-07T07:35:44;8.55;;;4.60;;
26622;SDS011;14254;50.968;5.366;2023-05-07T07:38:10;7.47;;;5.45;;
26622;SDS011;14254;50.968;5.366;2023-05-07T07:40:35;6.75;;;5.32;;
26622;SDS011;14254;50.968;5.366;2023-05-07T07:43:01;7.40;;;5.13;;
26622;SDS011;14254;50.968;5.366;2023-05-07T07:45:27;6.78;;;5.15;;
26622;SDS011;14254;50.968;5.366;2023-05-07T07:47:52;8.77;;;4.40;;
26622;SDS011;14254;50.968;5.366;2023-05-07T07:50:18;6.72;;;4.45;;
26622;SDS011;14254;50.968;5.366;2023-05-07T07:52:44;13.23;;;5.13;;
26622;SDS011;14254;50.968;5.366;2023-05-07T07:55:10;8.18;;;5.15;;
26622;SDS011;14254;50.968;5.366;2023-05-07T07:57:35;9.43;;;5.18;;
26622;SDS011;14254;50.968;5.366;2023-05-07T08:00:01;13.88;;;5.30;;
26622;SDS011;14254;50.968;5.366;2023-05-07T08:02:27;7.45;;;4.82;;
26622;SDS011;14254;50.968;5.366;2023-05-07T08:04:53;12.73;;;5.03;;
26622;SDS011;14254;50.968;5.366;2023-05-07T08:07:19;7.13;;;4.93;;
26622;SDS011;14254;50.968;5.366;2023-05-07T08:09:47;7.82;;;4.80;;
26622;SDS011;14254;50.968;5.366;2023-05-07T08:12:13;7.75;;;4.40;;
26622;SDS011;14254;50.968;5.366;2023-05-07T08:14:39;7.88;;;4.70;;
26622;SDS011;14254;50.968;5.366;2023-05-07T08:17:05;9.07;;;5.13;;
26622;SDS011;14254;50.968;5.366;2023-05-07T08:19:31;6.90;;;4.38;;
26622;SDS011;14254;50.968;5.366;2023-05-07T08:21:57;6.25;;;4.80;;
26622;SDS011;14254;50.968;5.366;2023-05-07T08:24:23;9.13;;;4.57;;
26622;SDS011;14254;50.968;5.366;2023-05-07T08:26:48;8.13;;;5.05;;
26622;SDS011;14254;50.968;5.366;2023-05-07T08:29:14;7.43;;;5.55;;
26622;SDS011;14254;50.968;5.366;2023-05-07T08:31:40;12.77;;;5.35;;
26622;SDS011;14254;50.968;5.366;2023-05-07T08:34:06;11.52;;;5.70;;
26622;SDS011;14254;50.968;5.366;2023-05-07T08:36:31;10.63;;;5.55;;
26622;SDS011;14254;50.968;5.366;2023-05-07T08:38:57;10.38;;;5.68;;
26622;SDS011;14254;50.968;5.366;2023-05-07T08:41:24;8.60;;;5.15;;
26622;SDS011;14254;50.968;5.366;2023-05-07T08:43:50;7.45;;;5.05;;
26622;SDS011;14254;50.968;5.366;2023-05-07T08:46:17;7.82;;;4.90;;
26622;SDS011;14254;50.968;5.366;2023-05-07T08:48:44;9.55;;;5.47;;
26622;SDS011;14254;50.968;5.366;2023-05-07T08:51:13;8.23;;;4.35;;
26622;SDS011;14254;50.968;5.366;2023-05-07T08:53:41;12.20;;;5.50;;
26622;SDS011;14254;50.968;5.366;2023-05-07T08:56:08;8.98;;;4.97;;
26622;SDS011;14254;50.968;5.366;2023-05-07T08:58:34;9.55;;;4.40;;
26622;SDS011;14254;50.968;5.366;2023-05-07T09:01:01;7.35;;;5.10;;
26622;SDS011;14254;50.968;5.366;2023-05-07T09:03:32;8.35;;;4.95;;
26622;SDS011;14254;50.968;5.366;2023-05-07T09:05:58;9.20;;;5.82;;
26622;SDS011;14254;50.968;5.366;2023-05-07T09:08:26;6.50;;;4.75;;
26622;SDS011;14254;50.968;5.366;2023-05-07T09:10:52;8.88;;;5.15;;
26622;SDS011;14254;50.968;5.366;2023-05-07T09:13:18;9.93;;;5.32;;
26622;SDS011;14254;50.968;5.366;2023-05-07T09:15:44;10.05;;;5.20;;
26622;SDS011;14254;50.968;5.366;2023-05-07T09:18:10;10.90;;;5.30;;
26622;SDS011;14254;50.968;5.366;2023-05-07T09:20:37;8.90;;;5.43;;
26622;SDS011;14254;50.968;5.366;2023-05-07T09:23:03;11.50;;;4.93;;
26622;SDS011;14254;50.968;5.366;2023-05-07T09:25:30;9.52;;;4.60;;
26622;SDS011;14254;50.968;5.366;2023-05-07T09:27:57;8.55;;;5.50;;
26622;SDS011;14254;50.968;5.366;2023-05-07T09:30:26;9.77;;;5.13;;
26622;SDS011;14254;50.968;5.366;2023-05-07T09:32:57;10.82;;;5.97;;
26622;SDS011;14254;50.968;5.366;2023-05-07T09:35:24;11.13;;;6.40;;
26622;SDS011;14254;50.968;5.366;2023-05-07T09:37:55;9.80;;;5.78;;
26622;SDS011;14254;50.968;5.366;2023-05-07T09:40:28;10.40;;;5.20;;
26622;SDS011;14254;50.968;5.366;2023-05-07T09:42:55;13.38;;;6.32;;
26622;SDS011;14254;50.968;5.366;2023-05-07T09:45:21;7.90;;;4.88;;
26622;SDS011;14254;50.968;5.366;2023-05-07T09:47:48;8.77;;;5.70;;
26622;SDS011;14254;50.968;5.366;2023-05-07T09:50:18;11.15;;;5.93;;
26622;SDS011;14254;50.968;5.366;2023-05-07T09:52:46;11.52;;;6.22;;
26622;SDS011;14254;50.968;5.366;2023-05-07T09:55:12;10.18;;;5.85;;
26622;SDS011;14254;50.968;5.366;2023-05-07T09:57:40;9.15;;;5.40;;
26622;SDS011;14254;50.968;5.366;2023-05-07T10:00:08;9.10;;;5.47;;
26622;SDS011;14254;50.968;5.366;2023-05-07T10:02:35;10.98;;;6.50;;
26622;SDS011;14254;50.968;5.366;2023-05-07T10:05:02;11.82;;;5.90;;
26622;SDS011;14254;50.968;5.366;2023-05-07T10:07:29;10.13;;;5.97;;
26622;SDS011;14254;50.968;5.366;2023-05-07T10:09:55;10.75;;;6.45;;
26622;SDS011;14254;50.968;5.366;2023-05-07T10:12:23;11.35;;;7.25;;
26622;SDS011;14254;50.968;5.366;2023-05-07T10:14:49;11.13;;;6.72;;
26622;SDS011;14254;50.968;5.366;2023-05-07T10:17:17;12.50;;;6.55;;
26622;SDS011;14254;50.968;5.366;2023-05-07T10:19:44;10.20;;;6.32;;
26622;SDS011;14254;50.968;5.366;2023-05-07T10:22:10;10.52;;;6.25;;
26622;SDS011;14254;50.968;5.366;2023-05-07T10:24:38;8.98;;;6.60;;
26622;SDS011;14254;50.968;5.366;2023-05-07T10:27:07;12.70;;;6.07;;
26622;SDS011;14254;50.968;5.366;2023-05-07T10:29:38;11.65;;;6.90;;
26622;SDS011;14254;50.968;5.366;2023-05-07T10:32:11;13.48;;;7.32;;
26622;SDS011;14254;50.968;5.366;2023-05-07T10:34:55;14.30;;;7.55;;
26622;SDS011;14254;50.968;5.366;2023-05-07T10:37:23;11.65;;;7.03;;
26622;SDS011;14254;50.968;5.366;2023-05-07T10:39:49;11.18;;;7.28;;
26622;SDS011;14254;50.968;5.366;2023-05-07T10:42:16;13.45;;;6.93;;
26622;SDS011;14254;50.968;5.366;2023-05-07T10:44:42;12.75;;;6.75;;
26622;SDS011;14254;50.968;5.366;2023-05-07T10:47:08;10.40;;;7.35;;
26622;SDS011;14254;50.968;5.366;2023-05-07T10:52:23;16.58;;;7.80;;
26622;SDS011;14254;50.968;5.366;2023-05-07T10:57:46;15.70;;;8.55;;
26622;SDS011;14254;50.968;5.366;2023-05-07T11:05:25;12.98;;;7.43;;
26622;SDS011;14254;50.968;5.366;2023-05-07T11:07:55;15.20;;;7.88;;
26622;SDS011;14254;50.968;5.366;2023-05-07T11:10:22;15.13;;;8.40;;
26622;SDS011;14254;50.968;5.366;2023-05-07T11:12:48;16.85;;;7.55;;
26622;SDS011;14254;50.968;5.366;2023-05-07T11:15:33;15.65;;;7.07;;
26622;SDS011;14254;50.968;5.366;2023-05-07T11:18:03;16.65;;;7.65;;
26622;SDS011;14254;50.968;5.366;2023-05-07T11:26:05;16.60;;;7.68;;
26622;SDS011;14254;50.968;5.366;2023-05-07T11:28:36;11.73;;;7.40;;
26622;SDS011;14254;50.968;5.366;2023-05-07T11:31:05;13.77;;;7.30;;
26622;SDS011;14254;50.968;5.366;2023-05-07T11:33:32;14.43;;;7.88;;
26622;SDS011;14254;50.968;5.366;2023-05-07T11:35:59;14.05;;;8.30;;
26622;SDS011;14254;50.968;5.366;2023-05-07T11:38:28;15.18;;;7.15;;
26622;SDS011;14254;50.968;5.366;2023-05-07T11:40:58;13.52;;;7.18;;
26622;SDS011;14254;50.968;5.366;2023-05-07T11:43:25;16.30;;;7.28;;
26622;SDS011;14254;50.968;5.366;2023-05-07T11:45:53;15.02;;;8.25;;
26622;SDS011;14254;50.968;5.366;2023-05-07T11:48:19;21.35;;;8.30;;
26622;SDS011;14254;50.968;5.366;2023-05-07T11:50:50;14.80;;;7.57;;
26622;SDS011;14254;50.968;5.366;2023-05-07T11:53:26;17.85;;;7.72;;
26622;SDS011;14254;50.968;5.366;2023-05-07T11:55:55;15.32;;;6.85;;
26622;SDS011;14254;50.968;5.366;2023-05-07T11:58:22;16.67;;;7.00;;
26622;SDS011;14254;50.968;5.366;2023-05-07T12:00:52;16.08;;;7.50;;
26622;SDS011;14254;50.968;5.366;2023-05-07T12:03:18;20.92;;;8.32;;
26622;SDS011;14254;50.968;5.366;2023-05-07T12:05:45;14.40;;;8.18;;
26622;SDS011;14254;50.968;5.366;2023-05-07T12:08:15;17.75;;;7.95;;
26622;SDS011;14254;50.968;5.366;2023-05-07T12:10:41;16.25;;;6.93;;
26622;SDS011;14254;50.968;5.366;2023-05-07T12:13:13;15.05;;;8.15;;
26622;SDS011;14254;50.968;5.366;2023-05-07T12:15:43;13.63;;;7.97;;
26622;SDS011;14254;50.968;5.366;2023-05-07T12:18:09;15.00;;;8.82;;
26622;SDS011;14254;50.968;5.366;2023-05-07T12:20:36;18.00;;;8.77;;
26622;SDS011;14254;50.968;5.366;2023-05-07T12:23:02;19.38;;;9.10;;
26622;SDS011;14254;50.968;5.366;2023-05-07T12:25:32;18.45;;;9.05;;
26622;SDS011;14254;50.968;5.366;2023-05-07T12:28:04;12.10;;;8.05;;
26622;SDS011;14254;50.968;5.366;2023-05-07T12:30:31;11.05;;;6.70;;
26622;SDS011;14254;50.968;5.366;2023-05-07T12:33:01;12.33;;;7.10;;
26622;SDS011;14254;50.968;5.366;2023-05-07T12:35:28;15.75;;;7.32;;
26622;SDS011;14254;50.968;5.366;2023-05-07T12:38:00;10.27;;;6.63;;
26622;SDS011;14254;50.968;5.366;2023-05-07T12:40:42;12.93;;;7.38;;
26622;SDS011;14254;50.968;5.366;2023-05-07T12:43:18;13.40;;;6.68;;
26622;SDS011;14254;50.968;5.366;2023-05-07T12:45:49;12.43;;;6.88;;
26622;SDS011;14254;50.968;5.366;2023-05-07T12:48:16;12.60;;;6.40;;
26622;SDS011;14254;50.968;5.366;2023-05-07T12:50:42;12.88;;;6.75;;
26622;SDS011;14254;50.968;5.366;2023-05-07T12:53:09;17.42;;;6.68;;
26622;SDS011;14254;50.968;5.366;2023-05-07T12:55:43;12.18;;;6.25;;
26622;SDS011;14254;50.968;5.366;2023-05-07T12:58:17;10.05;;;5.80;;
26622;SDS011;14254;50.968;5.366;2023-05-07T13:00:48;13.88;;;5.78;;
26622;SDS011;14254;50.968;5.366;2023-05-07T13:03:21;14.05;;;5.97;;
26622;SDS011;14254;50.968;5.366;2023-05-07T13:05:52;11.20;;;5.60;;
26622;SDS011;14254;50.968;5.366;2023-05-07T13:08:23;12.85;;;6.03;;
26622;SDS011;14254;50.968;5.366;2023-05-07T13:11:01;9.70;;;5.90;;
26622;SDS011;14254;50.968;5.366;2023-05-07T13:13:29;10.20;;;6.27;;
26622;SDS011;14254;50.968;5.366;2023-05-07T13:15:55;10.38;;;6.53;;
26622;SDS011;14254;50.968;5.366;2023-05-07T13:18:21;13.25;;;6.82;;
26622;SDS011;14254;50.968;5.366;2023-05-07T13:20:47;11.90;;;5.47;;
26622;SDS011;14254;50.968;5.366;2023-05-07T13:23:12;13.63;;;6.40;;
26622;SDS011;14254;50.968;5.366;2023-05-07T13:25:38;10.65;;;5.75;;
26622;SDS011;14254;50.968;5.366;2023-05-07T13:28:04;10.25;;;5.18;;
26622;SDS011;14254;50.968;5.366;2023-05-07T13:30:30;15.05;;;6.32;;
26622;SDS011;14254;50.968;5.366;2023-05-07T13:32:56;14.60;;;6.00;;
26622;SDS011;14254;50.968;5.366;2023-05-07T13:35:21;8.43;;;4.90;;
26622;SDS011;14254;50.968;5.366;2023-05-07T13:37:50;9.27;;;4.13;;
26622;SDS011;14254;50.968;5.366;2023-05-07T13:40:17;10.80;;;4.30;;
26622;SDS011;14254;50.968;5.366;2023-05-07T13:42:44;13.40;;;4.03;;
26622;SDS011;14254;50.968;5.366;2023-05-07T13:45:10;10.80;;;3.08;;
26622;SDS011;14254;50.968;5.366;2023-05-07T13:47:35;12.20;;;3.30;;
26622;SDS011;14254;50.968;5.366;2023-05-07T13:50:01;8.60;;;3.72;;
26622;SDS011;14254;50.968;5.366;2023-05-07T13:52:27;5.35;;;3.00;;
26622;SDS011;14254;50.968;5.366;2023-05-07T13:54:52;6.85;;;3.05;;
26622;SDS011;14254;50.968;5.366;2023-05-07T13:57:20;8.63;;;2.83;;
26622;SDS011;14254;50.968;5.366;2023-05-07T13:59:45;8.13;;;2.58;;
26622;SDS011;14254;50.968;5.366;2023-05-07T14:02:11;8.40;;;3.50;;
26622;SDS011;14254;50.968;5.366;2023-05-07T14:04:37;5.03;;;2.33;;
26622;SDS011;14254;50.968;5.366;2023-05-07T14:07:03;6.25;;;2.83;;
26622;SDS011;14254;50.968;5.366;2023-05-07T14:09:28;5.90;;;2.40;;
26622;SDS011;14254;50.968;5.366;2023-05-07T14:11:54;9.32;;;3.20;;
26622;SDS011;14254;50.968;5.366;2023-05-07T14:14:20;6.20;;;2.85;;
26622;SDS011;14254;50.968;5.366;2023-05-07T14:16:46;7.90;;;2.90;;
26622;SDS011;14254;50.968;5.366;2023-05-07T14:19:11;8.27;;;3.15;;
26622;SDS011;14254;50.968;5.366;2023-05-07T14:21:37;7.45;;;3.40;;
26622;SDS011;14254;50.968;5.366;2023-05-07T14:24:03;7.78;;;3.60;;
26622;SDS011;14254;50.968;5.366;2023-05-07T14:26:32;6.38;;;3.53;;
26622;SDS011;14254;50.968;5.366;2023-05-07T14:28:57;7.47;;;3.10;;
26622;SDS011;14254;50.968;5.366;2023-05-07T14:31:23;6.63;;;3.47;;
26622;SDS011;14254;50.968;5.366;2023-05-07T14:33:50;7.28;;;3.80;;
26622;SDS011;14254;50.968;5.366;2023-05-07T14:36:16;5.10;;;2.88;;
26622;SDS011;14254;50.968;5.366;2023-05-07T14:38:44;6.95;;;3.22;;
26622;SDS011;14254;50.968;5.366;2023-05-07T14:41:11;10.80;;;4.18;;
26622;SDS011;14254;50.968;5.366;2023-05-07T14:43:36;7.20;;;4.20;;
26622;SDS011;14254;50.968;5.366;2023-05-07T14:46:02;6.28;;;3.70;;
26622;SDS011;14254;50.968;5.366;2023-05-07T14:48:28;7.82;;;4.60;;
26622;SDS011;14254;50.968;5.366;2023-05-07T14:50:54;9.48;;;4.38;;